sensor_id;sensor_type;location;lat;lon;timestamp;temperature;humidity
18268;DHT22;9260;49.998;19.880;2023-06-10T00:00:39;13.70;99.90
18268;DHT22;9260;49.998;19.880;2023-06-10T00:10:43;13.60;99.90
18268;DHT22;9260;49.998;19.880;2023-06-10T00:20:48;13.50;99.90
18268;DHT22;9260;49.998;19.880;2023-06-10T00:30:56;13.40;99.90
18268;DHT22;9260;49.998;19.880;2023-06-10T00:41:01;13.40;99.90
18268;DHT22;9260;49.998;19.880;2023-06-10T00:51:06;13.90;99.90
18268;DHT22;9260;49.998;19.880;2023-06-10T01:01:12;14.00;99.90
18268;DHT22;9260;49.998;19.880;2023-06-10T01:11:17;14.10;99.90
18268;DHT22;9260;49.998;19.880;2023-06-10T01:21:25;14.10;99.90
18268;DHT22;9260;49.998;19.880;2023-06-10T01:31:31;14.10;99.90
18268;DHT22;9260;49.998;19.880;2023-06-10T01:41:39;14.10;99.90
18268;DHT22;9260;49.998;19.880;2023-06-10T01:51:44;13.80;99.90
18268;DHT22;9260;49.998;19.880;2023-06-10T02:01:49;13.70;99.90
18268;DHT22;9260;49.998;19.880;2023-06-10T02:11:52;13.60;99.90
18268;DHT22;9260;49.998;19.880;2023-06-10T02:21:57;13.30;99.90
18268;DHT22;9260;49.998;19.880;2023-06-10T02:32:03;13.60;99.90
18268;DHT22;9260;49.998;19.880;2023-06-10T02:42:13;13.70;99.90
18268;DHT22;9260;49.998;19.880;2023-06-10T02:52:17;13.80;99.90
18268;DHT22;9260;49.998;19.880;2023-06-10T03:02:24;13.90;99.90
18268;DHT22;9260;49.998;19.880;2023-06-10T03:12:31;14.20;99.90
18268;DHT22;9260;49.998;19.880;2023-06-10T03:22:36;14.30;99.90
18268;DHT22;9260;49.998;19.880;2023-06-10T03:32:43;14.60;99.90
18268;DHT22;9260;49.998;19.880;2023-06-10T03:42:52;14.70;99.90
18268;DHT22;9260;49.998;19.880;2023-06-10T03:52:56;14.70;99.90
18268;DHT22;9260;49.998;19.880;2023-06-10T04:03:02;14.40;99.90
18268;DHT22;9260;49.998;19.880;2023-06-10T04:13:11;15.20;99.90
18268;DHT22;9260;49.998;19.880;2023-06-10T04:23:26;15.50;99.90
18268;DHT22;9260;49.998;19.880;2023-06-10T04:33:30;15.60;99.90
18268;DHT22;9260;49.998;19.880;2023-06-10T04:43:38;15.80;99.90
18268;DHT22;9260;49.998;19.880;2023-06-10T04:53:42;16.30;99.90
18268;DHT22;9260;49.998;19.880;2023-06-10T05:03:48;16.40;99.90
18268;DHT22;9260;49.998;19.880;2023-06-10T05:13:51;16.50;99.90
18268;DHT22;9260;49.998;19.880;2023-06-10T05:23:56;16.80;99.90
18268;DHT22;9260;49.998;19.880;2023-06-10T05:34:00;16.70;99.90
18268;DHT22;9260;49.998;19.880;2023-06-10T05:44:05;16.80;99.90
18268;DHT22;9260;49.998;19.880;2023-06-10T05:54:09;17.40;99.90
18268;DHT22;9260;49.998;19.880;2023-06-10T06:04:14;17.70;99.90
18268;DHT22;9260;49.998;19.880;2023-06-10T06:14:18;18.50;99.90
18268;DHT22;9260;49.998;19.880;2023-06-10T06:24:23;19.20;99.90
18268;DHT22;9260;49.998;19.880;2023-06-10T06:34:26;19.60;99.90
18268;DHT22;9260;49.998;19.880;2023-06-10T06:44:31;20.30;99.90
18268;DHT22;9260;49.998;19.880;2023-06-10T06:54:35;20.30;99.90
18268;DHT22;9260;49.998;19.880;2023-06-10T07:04:40;20.50;99.90
18268;DHT22;9260;49.998;19.880;2023-06-10T07:14:44;20.70;99.90
18268;DHT22;9260;49.998;19.880;2023-06-10T07:24:49;20.90;99.90
18268;DHT22;9260;49.998;19.880;2023-06-10T07:34:53;21.80;99.90
18268;DHT22;9260;49.998;19.880;2023-06-10T07:45:00;21.70;99.90
18268;DHT22;9260;49.998;19.880;2023-06-10T08:20:05;23.40;99.90
18268;DHT22;9260;49.998;19.880;2023-06-10T08:38:43;24.70;99.90
18268;DHT22;9260;49.998;19.880;2023-06-10T08:48:48;25.80;99.90
18268;DHT22;9260;49.998;19.880;2023-06-10T08:58:54;25.60;99.90
18268;DHT22;9260;49.998;19.880;2023-06-10T09:08:58;26.90;99.90
18268;DHT22;9260;49.998;19.880;2023-06-10T09:19:06;30.60;99.90
18268;DHT22;9260;49.998;19.880;2023-06-10T09:29:12;32.40;99.90
18268;DHT22;9260;49.998;19.880;2023-06-10T09:39:18;32.10;99.90
18268;DHT22;9260;49.998;19.880;2023-06-10T09:49:22;31.50;99.90
18268;DHT22;9260;49.998;19.880;2023-06-10T09:59:30;30.30;99.90
18268;DHT22;9260;49.998;19.880;2023-06-10T10:09:35;27.70;99.90
18268;DHT22;9260;49.998;19.880;2023-06-10T10:19:43;26.30;99.90
18268;DHT22;9260;49.998;19.880;2023-06-10T10:29:51;24.50;99.90
18268;DHT22;9260;49.998;19.880;2023-06-10T10:39:57;23.00;99.90
18268;DHT22;9260;49.998;19.880;2023-06-10T10:50:02;22.50;99.90
18268;DHT22;9260;49.998;19.880;2023-06-10T11:00:25;23.40;99.90
18268;DHT22;9260;49.998;19.880;2023-06-10T11:10:31;27.60;99.90
18268;DHT22;9260;49.998;19.880;2023-06-10T11:20:50;29.40;99.90
18268;DHT22;9260;49.998;19.880;2023-06-10T11:30:56;32.70;99.90
18268;DHT22;9260;49.998;19.880;2023-06-10T11:41:02;29.70;99.90
18268;DHT22;9260;49.998;19.880;2023-06-10T11:51:06;27.10;99.90
18268;DHT22;9260;49.998;19.880;2023-06-10T12:01:11;27.40;99.90
18268;DHT22;9260;49.998;19.880;2023-06-10T12:11:29;25.60;99.90
18268;DHT22;9260;49.998;19.880;2023-06-10T12:21:36;27.20;99.90
18268;DHT22;9260;49.998;19.880;2023-06-10T12:31:56;26.70;99.90
18268;DHT22;9260;49.998;19.880;2023-06-10T12:42:06;28.00;99.90
18268;DHT22;9260;49.998;19.880;2023-06-10T12:52:12;28.30;99.90
18268;DHT22;9260;49.998;19.880;2023-06-10T13:02:17;28.00;99.90
18268;DHT22;9260;49.998;19.880;2023-06-10T13:12:21;26.90;99.90
18268;DHT22;9260;49.998;19.880;2023-06-10T13:22:44;26.30;99.90
18268;DHT22;9260;49.998;19.880;2023-06-10T13:32:49;25.80;99.90
18268;DHT22;9260;49.998;19.880;2023-06-10T13:42:57;26.00;99.90
18268;DHT22;9260;49.998;19.880;2023-06-10T13:53:04;26.80;99.90
18268;DHT22;9260;49.998;19.880;2023-06-10T14:03:09;26.20;99.90
18268;DHT22;9260;49.998;19.880;2023-06-10T14:13:16;25.20;99.90
18268;DHT22;9260;49.998;19.880;2023-06-10T14:23:26;24.20;99.90
18268;DHT22;9260;49.998;19.880;2023-06-10T14:33:29;23.80;99.90
18268;DHT22;9260;49.998;19.880;2023-06-10T14:43:34;23.80;99.90
18268;DHT22;9260;49.998;19.880;2023-06-10T14:53:37;24.00;99.90
18268;DHT22;9260;49.998;19.880;2023-06-10T15:03:42;24.00;99.90
18268;DHT22;9260;49.998;19.880;2023-06-10T15:13:45;23.30;99.90
18268;DHT22;9260;49.998;19.880;2023-06-10T15:23:50;23.30;99.90
18268;DHT22;9260;49.998;19.880;2023-06-10T15:33:53;22.60;99.90
18268;DHT22;9260;49.998;19.880;2023-06-10T15:43:58;23.00;99.90
18268;DHT22;9260;49.998;19.880;2023-06-10T15:54:02;22.70;99.90
18268;DHT22;9260;49.998;19.880;2023-06-10T16:04:09;22.80;99.90
18268;DHT22;9260;49.998;19.880;2023-06-10T16:14:16;22.50;99.90
18268;DHT22;9260;49.998;19.880;2023-06-10T16:24:21;22.60;99.90
18268;DHT22;9260;49.998;19.880;2023-06-10T16:34:26;21.70;99.90
18268;DHT22;9260;49.998;19.880;2023-06-10T16:44:30;20.80;99.90
18268;DHT22;9260;49.998;19.880;2023-06-10T16:54:33;20.10;99.90
18268;DHT22;9260;49.998;19.880;2023-06-10T17:04:38;19.40;99.90
18268;DHT22;9260;49.998;19.880;2023-06-10T17:14:41;18.60;99.90
18268;DHT22;9260;49.998;19.880;2023-06-10T17:24:46;18.20;99.90
18268;DHT22;9260;49.998;19.880;2023-06-10T17:34:49;17.70;99.90
18268;DHT22;9260;49.998;19.880;2023-06-10T17:44:55;17.40;99.90
18268;DHT22;9260;49.998;19.880;2023-06-10T17:54:58;17.00;99.90
18268;DHT22;9260;49.998;19.880;2023-06-10T18:05:03;16.80;99.90
18268;DHT22;9260;49.998;19.880;2023-06-10T18:15:07;16.50;99.90
18268;DHT22;9260;49.998;19.880;2023-06-10T18:25:13;16.10;99.90
18268;DHT22;9260;49.998;19.880;2023-06-10T18:35:16;15.90;99.90
18268;DHT22;9260;49.998;19.880;2023-06-10T18:45:21;15.70;99.90
18268;DHT22;9260;49.998;19.880;2023-06-10T18:55:25;15.50;99.90
18268;DHT22;9260;49.998;19.880;2023-06-10T19:05:34;15.30;99.90
18268;DHT22;9260;49.998;19.880;2023-06-10T19:15:38;15.10;99.90
18268;DHT22;9260;49.998;19.880;2023-06-10T19:25:43;14.80;99.90
18268;DHT22;9260;49.998;19.880;2023-06-10T19:35:46;14.60;99.90
18268;DHT22;9260;49.998;19.880;2023-06-10T19:45:50;14.40;99.90
18268;DHT22;9260;49.998;19.880;2023-06-10T19:55:56;14.40;99.90
18268;DHT22;9260;49.998;19.880;2023-06-10T20:06:00;14.30;99.90
18268;DHT22;9260;49.998;19.880;2023-06-10T20:16:04;14.30;99.90
18268;DHT22;9260;49.998;19.880;2023-06-10T20:26:09;14.20;99.90
18268;DHT22;9260;49.998;19.880;2023-06-10T20:36:13;14.20;99.90
18268;DHT22;9260;49.998;19.880;2023-06-10T20:46:18;14.10;99.90
18268;DHT22;9260;49.998;19.880;2023-06-10T20:56:24;14.00;99.90
18268;DHT22;9260;49.998;19.880;2023-06-10T21:06:29;14.20;99.90
18268;DHT22;9260;49.998;19.880;2023-06-10T21:16:35;14.10;99.90
18268;DHT22;9260;49.998;19.880;2023-06-10T21:26:42;14.20;99.90
18268;DHT22;9260;49.998;19.880;2023-06-10T21:36:45;14.50;99.90
18268;DHT22;9260;49.998;19.880;2023-06-10T21:46:50;14.40;99.90
18268;DHT22;9260;49.998;19.880;2023-06-10T21:56:53;14.20;99.90
18268;DHT22;9260;49.998;19.880;2023-06-10T22:06:58;14.00;99.90
18268;DHT22;9260;49.998;19.880;2023-06-10T22:17:01;14.20;99.90
18268;DHT22;9260;49.998;19.880;2023-06-10T22:27:06;14.00;99.90
18268;DHT22;9260;49.998;19.880;2023-06-10T22:37:10;13.90;99.90
18268;DHT22;9260;49.998;19.880;2023-06-10T22:47:14;13.90;99.90
18268;DHT22;9260;49.998;19.880;2023-06-10T22:57:18;14.00;99.90
18268;DHT22;9260;49.998;19.880;2023-06-10T23:07:22;13.90;99.90
18268;DHT22;9260;49.998;19.880;2023-06-10T23:17:25;14.00;99.90
18268;DHT22;9260;49.998;19.880;2023-06-10T23:27:31;14.20;99.90
18268;DHT22;9260;49.998;19.880;2023-06-10T23:37:35;13.80;99.90
18268;DHT22;9260;49.998;19.880;2023-06-10T23:47:39;13.30;99.90
18268;DHT22;9260;49.998;19.880;2023-06-10T23:57:43;13.20;99.90
